sensor_id;sensor_type;location;lat;lon;timestamp;P1;durP1;ratioP1;P2;durP2;ratioP2
70342;SDS011;57767;42.068;24.752;2022-10-16T00:00:51;6.93;;;5.43;;
70342;SDS011;57767;42.068;24.752;2022-10-16T00:01:52;7.22;;;5.82;;
70342;SDS011;57767;42.068;24.752;2022-10-16T00:02:54;6.90;;;5.13;;
70342;SDS011;57767;42.068;24.752;2022-10-16T00:03:57;7.70;;;5.63;;
70342;SDS011;57767;42.068;24.752;2022-10-16T00:05:00;9.07;;;5.82;;
70342;SDS011;57767;42.068;24.752;2022-10-16T00:06:02;7.47;;;5.47;;
70342;SDS011;57767;42.068;24.752;2022-10-16T00:07:05;7.97;;;5.70;;
70342;SDS011;57767;42.068;24.752;2022-10-16T00:08:07;8.15;;;5.90;;
70342;SDS011;57767;42.068;24.752;2022-10-16T00:09:09;8.38;;;5.68;;
70342;SDS011;57767;42.068;24.752;2022-10-16T00:10:11;10.75;;;5.90;;
70342;SDS011;57767;42.068;24.752;2022-10-16T00:11:14;7.20;;;5.70;;
70342;SDS011;57767;42.068;24.752;2022-10-16T00:12:18;8.30;;;5.93;;
70342;SDS011;57767;42.068;24.752;2022-10-16T00:13:19;10.20;;;5.88;;
70342;SDS011;57767;42.068;24.752;2022-10-16T00:14:22;8.57;;;5.60;;
70342;SDS011;57767;42.068;24.752;2022-10-16T00:15:23;6.68;;;5.50;;
70342;SDS011;57767;42.068;24.752;2022-10-16T00:16:25;7.28;;;4.93;;
70342;SDS011;57767;42.068;24.752;2022-10-16T00:17:29;7.30;;;5.65;;
70342;SDS011;57767;42.068;24.752;2022-10-16T00:18:31;9.00;;;5.47;;
70342;SDS011;57767;42.068;24.752;2022-10-16T00:19:33;7.15;;;5.93;;
70342;SDS011;57767;42.068;24.752;2022-10-16T00:20:34;6.05;;;4.85;;
70342;SDS011;57767;42.068;24.752;2022-10-16T00:21:38;9.43;;;5.50;;
70342;SDS011;57767;42.068;24.752;2022-10-16T00:22:40;6.28;;;5.40;;
70342;SDS011;57767;42.068;24.752;2022-10-16T00:23:42;8.93;;;5.53;;
70342;SDS011;57767;42.068;24.752;2022-10-16T00:24:44;6.97;;;5.50;;
70342;SDS011;57767;42.068;24.752;2022-10-16T00:25:54;9.73;;;5.60;;
70342;SDS011;57767;42.068;24.752;2022-10-16T00:29:01;10.15;;;6.45;;
70342;SDS011;57767;42.068;24.752;2022-10-16T00:30:04;10.70;;;7.00;;
70342;SDS011;57767;42.068;24.752;2022-10-16T00:31:07;11.30;;;7.10;;
70342;SDS011;57767;42.068;24.752;2022-10-16T00:32:11;7.85;;;5.85;;
70342;SDS011;57767;42.068;24.752;2022-10-16T00:33:13;7.70;;;5.25;;
70342;SDS011;57767;42.068;24.752;2022-10-16T00:34:14;8.25;;;5.72;;
70342;SDS011;57767;42.068;24.752;2022-10-16T00:35:16;9.15;;;5.30;;
70342;SDS011;57767;42.068;24.752;2022-10-16T00:36:19;9.68;;;5.47;;
70342;SDS011;57767;42.068;24.752;2022-10-16T00:37:22;8.05;;;5.60;;
70342;SDS011;57767;42.068;24.752;2022-10-16T00:38:23;8.38;;;5.30;;
70342;SDS011;57767;42.068;24.752;2022-10-16T00:39:25;10.07;;;5.65;;
70342;SDS011;57767;42.068;24.752;2022-10-16T00:40:27;8.10;;;5.63;;
70342;SDS011;57767;42.068;24.752;2022-10-16T00:41:29;7.35;;;5.50;;
70342;SDS011;57767;42.068;24.752;2022-10-16T00:42:32;9.88;;;5.68;;
70342;SDS011;57767;42.068;24.752;2022-10-16T00:45:53;5.93;;;5.00;;
70342;SDS011;57767;42.068;24.752;2022-10-16T00:46:55;6.95;;;4.90;;
70342;SDS011;57767;42.068;24.752;2022-10-16T00:47:57;7.25;;;5.28;;
70342;SDS011;57767;42.068;24.752;2022-10-16T00:51:38;7.90;;;5.38;;
70342;SDS011;57767;42.068;24.752;2022-10-16T00:52:43;7.30;;;5.10;;
70342;SDS011;57767;42.068;24.752;2022-10-16T00:53:48;6.53;;;5.43;;
70342;SDS011;57767;42.068;24.752;2022-10-16T00:54:50;5.50;;;4.80;;
70342;SDS011;57767;42.068;24.752;2022-10-16T00:55:54;7.05;;;5.25;;
70342;SDS011;57767;42.068;24.752;2022-10-16T00:56:58;10.38;;;5.32;;
70342;SDS011;57767;42.068;24.752;2022-10-16T00:58:04;7.03;;;5.20;;
70342;SDS011;57767;42.068;24.752;2022-10-16T00:59:07;8.65;;;5.43;;
70342;SDS011;57767;42.068;24.752;2022-10-16T01:00:20;6.32;;;4.82;;
70342;SDS011;57767;42.068;24.752;2022-10-16T01:01:25;6.85;;;4.90;;
70342;SDS011;57767;42.068;24.752;2022-10-16T01:02:27;7.38;;;5.78;;
70342;SDS011;57767;42.068;24.752;2022-10-16T01:03:33;7.65;;;5.25;;
70342;SDS011;57767;42.068;24.752;2022-10-16T01:04:38;7.88;;;5.15;;
70342;SDS011;57767;42.068;24.752;2022-10-16T01:05:46;7.38;;;5.57;;
70342;SDS011;57767;42.068;24.752;2022-10-16T01:07:16;7.85;;;4.78;;
70342;SDS011;57767;42.068;24.752;2022-10-16T01:08:49;9.40;;;5.32;;
70342;SDS011;57767;42.068;24.752;2022-10-16T01:11:22;9.25;;;5.82;;
70342;SDS011;57767;42.068;24.752;2022-10-16T01:14:22;6.70;;;5.18;;
70342;SDS011;57767;42.068;24.752;2022-10-16T01:15:46;5.75;;;5.13;;
70342;SDS011;57767;42.068;24.752;2022-10-16T01:17:01;6.30;;;5.03;;
70342;SDS011;57767;42.068;24.752;2022-10-16T01:19:25;6.47;;;5.22;;
70342;SDS011;57767;42.068;24.752;2022-10-16T01:20:42;6.30;;;5.30;;
70342;SDS011;57767;42.068;24.752;2022-10-16T01:21:49;8.80;;;5.80;;
70342;SDS011;57767;42.068;24.752;2022-10-16T01:24:40;6.03;;;5.25;;
70342;SDS011;57767;42.068;24.752;2022-10-16T01:27:27;8.60;;;5.53;;
70342;SDS011;57767;42.068;24.752;2022-10-16T01:28:34;9.07;;;5.38;;
70342;SDS011;57767;42.068;24.752;2022-10-16T01:30:48;10.60;;;5.22;;
70342;SDS011;57767;42.068;24.752;2022-10-16T01:31:58;8.25;;;5.65;;
70342;SDS011;57767;42.068;24.752;2022-10-16T01:33:05;7.13;;;5.63;;
70342;SDS011;57767;42.068;24.752;2022-10-16T01:34:20;6.03;;;5.38;;
70342;SDS011;57767;42.068;24.752;2022-10-16T01:35:30;7.88;;;5.65;;
70342;SDS011;57767;42.068;24.752;2022-10-16T01:36:38;7.80;;;4.95;;
70342;SDS011;57767;42.068;24.752;2022-10-16T01:39:03;8.60;;;5.50;;
70342;SDS011;57767;42.068;24.752;2022-10-16T01:40:10;6.47;;;5.25;;
70342;SDS011;57767;42.068;24.752;2022-10-16T01:41:16;7.80;;;5.63;;
70342;SDS011;57767;42.068;24.752;2022-10-16T01:42:28;20.58;;;5.88;;
70342;SDS011;57767;42.068;24.752;2022-10-16T01:43:36;9.77;;;5.40;;
70342;SDS011;57767;42.068;24.752;2022-10-16T01:44:51;6.65;;;5.60;;
70342;SDS011;57767;42.068;24.752;2022-10-16T01:45:56;7.03;;;5.75;;
70342;SDS011;57767;42.068;24.752;2022-10-16T01:47:00;8.48;;;5.63;;
70342;SDS011;57767;42.068;24.752;2022-10-16T01:48:02;8.02;;;5.43;;
70342;SDS011;57767;42.068;24.752;2022-10-16T01:49:09;7.50;;;5.78;;
70342;SDS011;57767;42.068;24.752;2022-10-16T01:50:13;8.48;;;5.93;;
70342;SDS011;57767;42.068;24.752;2022-10-16T01:51:17;7.45;;;5.70;;
70342;SDS011;57767;42.068;24.752;2022-10-16T01:52:21;6.55;;;5.28;;
70342;SDS011;57767;42.068;24.752;2022-10-16T01:53:27;10.43;;;5.60;;
70342;SDS011;57767;42.068;24.752;2022-10-16T01:54:30;10.07;;;6.32;;
70342;SDS011;57767;42.068;24.752;2022-10-16T01:55:36;7.85;;;5.45;;
70342;SDS011;57767;42.068;24.752;2022-10-16T01:56:40;8.27;;;5.78;;
70342;SDS011;57767;42.068;24.752;2022-10-16T01:57:44;6.50;;;5.20;;
70342;SDS011;57767;42.068;24.752;2022-10-16T01:58:54;7.38;;;5.80;;
70342;SDS011;57767;42.068;24.752;2022-10-16T02:00:00;6.47;;;5.35;;
70342;SDS011;57767;42.068;24.752;2022-10-16T02:01:06;8.88;;;5.55;;
70342;SDS011;57767;42.068;24.752;2022-10-16T02:02:12;9.43;;;6.00;;
70342;SDS011;57767;42.068;24.752;2022-10-16T02:03:18;6.20;;;5.60;;
70342;SDS011;57767;42.068;24.752;2022-10-16T02:04:34;7.35;;;5.93;;
70342;SDS011;57767;42.068;24.752;2022-10-16T02:05:52;6.55;;;5.32;;
70342;SDS011;57767;42.068;24.752;2022-10-16T02:06:56;8.80;;;5.57;;
70342;SDS011;57767;42.068;24.752;2022-10-16T02:07:58;7.43;;;6.22;;
70342;SDS011;57767;42.068;24.752;2022-10-16T02:09:05;6.65;;;5.50;;
70342;SDS011;57767;42.068;24.752;2022-10-16T02:10:07;6.72;;;5.85;;
70342;SDS011;57767;42.068;24.752;2022-10-16T02:11:10;7.80;;;5.90;;
70342;SDS011;57767;42.068;24.752;2022-10-16T02:12:15;9.43;;;6.95;;
70342;SDS011;57767;42.068;24.752;2022-10-16T02:13:28;11.50;;;7.03;;
70342;SDS011;57767;42.068;24.752;2022-10-16T02:14:34;11.55;;;6.03;;
70342;SDS011;57767;42.068;24.752;2022-10-16T02:15:40;8.18;;;6.07;;
70342;SDS011;57767;42.068;24.752;2022-10-16T02:16:43;9.20;;;6.72;;
70342;SDS011;57767;42.068;24.752;2022-10-16T02:17:46;9.85;;;6.55;;
70342;SDS011;57767;42.068;24.752;2022-10-16T02:18:48;10.73;;;6.57;;
70342;SDS011;57767;42.068;24.752;2022-10-16T02:19:50;7.55;;;6.13;;
70342;SDS011;57767;42.068;24.752;2022-10-16T02:20:59;7.63;;;5.97;;
70342;SDS011;57767;42.068;24.752;2022-10-16T02:22:06;9.77;;;5.95;;
70342;SDS011;57767;42.068;24.752;2022-10-16T02:23:12;8.57;;;6.25;;
70342;SDS011;57767;42.068;24.752;2022-10-16T02:25:32;8.05;;;5.97;;
70342;SDS011;57767;42.068;24.752;2022-10-16T02:27:57;6.88;;;5.15;;
70342;SDS011;57767;42.068;24.752;2022-10-16T02:29:16;7.45;;;5.45;;
70342;SDS011;57767;42.068;24.752;2022-10-16T02:30:26;7.90;;;5.50;;
70342;SDS011;57767;42.068;24.752;2022-10-16T02:31:32;7.75;;;5.10;;
70342;SDS011;57767;42.068;24.752;2022-10-16T02:32:39;11.18;;;5.55;;
70342;SDS011;57767;42.068;24.752;2022-10-16T02:33:43;7.43;;;5.80;;
70342;SDS011;57767;42.068;24.752;2022-10-16T02:34:48;8.43;;;6.00;;
70342;SDS011;57767;42.068;24.752;2022-10-16T02:35:50;8.52;;;5.47;;
70342;SDS011;57767;42.068;24.752;2022-10-16T02:36:53;9.43;;;5.72;;
70342;SDS011;57767;42.068;24.752;2022-10-16T02:37:56;8.32;;;5.80;;
70342;SDS011;57767;42.068;24.752;2022-10-16T02:38:59;7.65;;;5.38;;
70342;SDS011;57767;42.068;24.752;2022-10-16T02:40:02;7.40;;;6.10;;
70342;SDS011;57767;42.068;24.752;2022-10-16T02:41:06;12.63;;;6.07;;
70342;SDS011;57767;42.068;24.752;2022-10-16T02:42:11;8.25;;;5.72;;
70342;SDS011;57767;42.068;24.752;2022-10-16T02:43:14;10.70;;;6.50;;
70342;SDS011;57767;42.068;24.752;2022-10-16T02:44:16;11.05;;;5.78;;
70342;SDS011;57767;42.068;24.752;2022-10-16T02:45:18;7.10;;;5.53;;
70342;SDS011;57767;42.068;24.752;2022-10-16T02:46:20;6.88;;;5.88;;
70342;SDS011;57767;42.068;24.752;2022-10-16T02:47:22;7.50;;;6.28;;
70342;SDS011;57767;42.068;24.752;2022-10-16T02:48:24;9.85;;;6.32;;
70342;SDS011;57767;42.068;24.752;2022-10-16T02:49:25;7.43;;;6.15;;
70342;SDS011;57767;42.068;24.752;2022-10-16T02:50:27;11.50;;;6.47;;
70342;SDS011;57767;42.068;24.752;2022-10-16T02:51:29;10.27;;;6.10;;
70342;SDS011;57767;42.068;24.752;2022-10-16T02:52:30;8.82;;;6.28;;
70342;SDS011;57767;42.068;24.752;2022-10-16T02:53:32;9.55;;;6.35;;
70342;SDS011;57767;42.068;24.752;2022-10-16T02:54:34;11.73;;;6.22;;
70342;SDS011;57767;42.068;24.752;2022-10-16T02:55:36;12.55;;;7.10;;
70342;SDS011;57767;42.068;24.752;2022-10-16T02:56:37;8.90;;;7.00;;
70342;SDS011;57767;42.068;24.752;2022-10-16T02:57:40;10.68;;;6.93;;
70342;SDS011;57767;42.068;24.752;2022-10-16T02:58:41;7.22;;;6.43;;
70342;SDS011;57767;42.068;24.752;2022-10-16T02:59:43;10.95;;;7.10;;
70342;SDS011;57767;42.068;24.752;2022-10-16T03:00:45;8.52;;;6.32;;
70342;SDS011;57767;42.068;24.752;2022-10-16T03:01:47;11.32;;;7.88;;
70342;SDS011;57767;42.068;24.752;2022-10-16T03:02:49;9.88;;;7.28;;
70342;SDS011;57767;42.068;24.752;2022-10-16T03:03:51;8.38;;;6.75;;
70342;SDS011;57767;42.068;24.752;2022-10-16T03:04:53;9.05;;;6.78;;
70342;SDS011;57767;42.068;24.752;2022-10-16T03:05:55;7.85;;;6.35;;
70342;SDS011;57767;42.068;24.752;2022-10-16T03:06:56;9.13;;;6.28;;
70342;SDS011;57767;42.068;24.752;2022-10-16T03:07:58;8.85;;;6.75;;
70342;SDS011;57767;42.068;24.752;2022-10-16T03:09:02;10.27;;;6.82;;
70342;SDS011;57767;42.068;24.752;2022-10-16T03:10:04;7.70;;;6.60;;
70342;SDS011;57767;42.068;24.752;2022-10-16T03:11:06;7.97;;;6.40;;
70342;SDS011;57767;42.068;24.752;2022-10-16T03:12:07;8.05;;;6.50;;
70342;SDS011;57767;42.068;24.752;2022-10-16T03:13:09;10.73;;;6.13;;
70342;SDS011;57767;42.068;24.752;2022-10-16T03:14:11;6.75;;;6.03;;
70342;SDS011;57767;42.068;24.752;2022-10-16T03:15:12;8.65;;;6.70;;
70342;SDS011;57767;42.068;24.752;2022-10-16T03:16:14;7.30;;;6.10;;
70342;SDS011;57767;42.068;24.752;2022-10-16T03:17:16;8.35;;;6.57;;
70342;SDS011;57767;42.068;24.752;2022-10-16T03:18:18;9.05;;;6.43;;
70342;SDS011;57767;42.068;24.752;2022-10-16T03:19:20;7.55;;;6.75;;
70342;SDS011;57767;42.068;24.752;2022-10-16T03:20:22;9.40;;;6.43;;
70342;SDS011;57767;42.068;24.752;2022-10-16T03:21:23;9.60;;;6.75;;
70342;SDS011;57767;42.068;24.752;2022-10-16T03:22:25;13.10;;;6.75;;
70342;SDS011;57767;42.068;24.752;2022-10-16T03:23:27;10.13;;;6.47;;
70342;SDS011;57767;42.068;24.752;2022-10-16T03:24:30;10.07;;;6.40;;
70342;SDS011;57767;42.068;24.752;2022-10-16T03:25:32;11.10;;;6.90;;
70342;SDS011;57767;42.068;24.752;2022-10-16T03:26:34;8.43;;;6.85;;
70342;SDS011;57767;42.068;24.752;2022-10-16T03:27:35;8.25;;;6.72;;
70342;SDS011;57767;42.068;24.752;2022-10-16T03:28:37;10.15;;;6.93;;
70342;SDS011;57767;42.068;24.752;2022-10-16T03:29:39;11.18;;;7.10;;
70342;SDS011;57767;42.068;24.752;2022-10-16T03:30:42;8.93;;;6.88;;
70342;SDS011;57767;42.068;24.752;2022-10-16T03:31:44;11.93;;;8.02;;
70342;SDS011;57767;42.068;24.752;2022-10-16T03:32:46;13.05;;;7.93;;
70342;SDS011;57767;42.068;24.752;2022-10-16T03:33:48;13.18;;;8.05;;
70342;SDS011;57767;42.068;24.752;2022-10-16T03:34:49;11.88;;;7.93;;
70342;SDS011;57767;42.068;24.752;2022-10-16T03:35:52;9.18;;;7.47;;
70342;SDS011;57767;42.068;24.752;2022-10-16T03:36:54;10.02;;;6.22;;
70342;SDS011;57767;42.068;24.752;2022-10-16T03:37:56;11.68;;;6.57;;
70342;SDS011;57767;42.068;24.752;2022-10-16T03:38:58;8.07;;;6.85;;
70342;SDS011;57767;42.068;24.752;2022-10-16T03:39:59;8.73;;;6.85;;
70342;SDS011;57767;42.068;24.752;2022-10-16T03:41:01;8.45;;;6.88;;
70342;SDS011;57767;42.068;24.752;2022-10-16T03:42:03;12.43;;;6.90;;
70342;SDS011;57767;42.068;24.752;2022-10-16T03:43:04;8.68;;;7.00;;
70342;SDS011;57767;42.068;24.752;2022-10-16T03:44:06;7.57;;;6.70;;
70342;SDS011;57767;42.068;24.752;2022-10-16T03:45:08;11.85;;;6.85;;
70342;SDS011;57767;42.068;24.752;2022-10-16T03:46:10;9.45;;;6.13;;
70342;SDS011;57767;42.068;24.752;2022-10-16T03:47:12;9.85;;;6.07;;
70342;SDS011;57767;42.068;24.752;2022-10-16T03:48:14;6.78;;;5.68;;
70342;SDS011;57767;42.068;24.752;2022-10-16T03:49:15;10.75;;;6.20;;
70342;SDS011;57767;42.068;24.752;2022-10-16T03:50:17;9.30;;;6.30;;
70342;SDS011;57767;42.068;24.752;2022-10-16T03:51:19;7.82;;;5.88;;
70342;SDS011;57767;42.068;24.752;2022-10-16T03:52:21;6.93;;;5.90;;
70342;SDS011;57767;42.068;24.752;2022-10-16T03:53:23;8.05;;;6.50;;
70342;SDS011;57767;42.068;24.752;2022-10-16T03:54:24;7.95;;;6.15;;
70342;SDS011;57767;42.068;24.752;2022-10-16T03:55:26;8.80;;;6.03;;
70342;SDS011;57767;42.068;24.752;2022-10-16T03:56:28;6.35;;;5.75;;
70342;SDS011;57767;42.068;24.752;2022-10-16T03:57:29;7.55;;;6.10;;
70342;SDS011;57767;42.068;24.752;2022-10-16T03:58:31;8.10;;;6.20;;
70342;SDS011;57767;42.068;24.752;2022-10-16T03:59:33;8.40;;;5.90;;
70342;SDS011;57767;42.068;24.752;2022-10-16T04:00:34;9.50;;;6.50;;
70342;SDS011;57767;42.068;24.752;2022-10-16T04:01:36;6.28;;;5.68;;
70342;SDS011;57767;42.068;24.752;2022-10-16T04:02:38;8.07;;;5.93;;
70342;SDS011;57767;42.068;24.752;2022-10-16T04:03:40;7.47;;;6.50;;
70342;SDS011;57767;42.068;24.752;2022-10-16T04:04:42;10.50;;;7.07;;
70342;SDS011;57767;42.068;24.752;2022-10-16T04:05:44;10.70;;;6.93;;
70342;SDS011;57767;42.068;24.752;2022-10-16T04:06:46;9.05;;;6.65;;
70342;SDS011;57767;42.068;24.752;2022-10-16T04:07:47;11.30;;;6.93;;
70342;SDS011;57767;42.068;24.752;2022-10-16T04:08:49;11.93;;;6.97;;
70342;SDS011;57767;42.068;24.752;2022-10-16T04:09:51;9.48;;;6.47;;
70342;SDS011;57767;42.068;24.752;2022-10-16T04:10:53;11.60;;;7.03;;
70342;SDS011;57767;42.068;24.752;2022-10-16T04:11:55;9.98;;;6.85;;
70342;SDS011;57767;42.068;24.752;2022-10-16T04:12:56;8.95;;;6.60;;
70342;SDS011;57767;42.068;24.752;2022-10-16T04:13:58;8.82;;;6.50;;
70342;SDS011;57767;42.068;24.752;2022-10-16T04:15:00;8.55;;;6.57;;
70342;SDS011;57767;42.068;24.752;2022-10-16T04:16:02;10.60;;;6.40;;
70342;SDS011;57767;42.068;24.752;2022-10-16T04:17:03;7.47;;;5.95;;
70342;SDS011;57767;42.068;24.752;2022-10-16T04:18:05;10.25;;;6.40;;
70342;SDS011;57767;42.068;24.752;2022-10-16T04:19:07;9.60;;;5.75;;
70342;SDS011;57767;42.068;24.752;2022-10-16T04:20:08;9.25;;;6.05;;
70342;SDS011;57767;42.068;24.752;2022-10-16T04:21:10;10.02;;;5.97;;
70342;SDS011;57767;42.068;24.752;2022-10-16T04:22:12;11.57;;;5.72;;
70342;SDS011;57767;42.068;24.752;2022-10-16T04:23:14;11.60;;;6.32;;
70342;SDS011;57767;42.068;24.752;2022-10-16T04:24:15;11.02;;;5.90;;
70342;SDS011;57767;42.068;24.752;2022-10-16T04:25:17;11.43;;;6.53;;
70342;SDS011;57767;42.068;24.752;2022-10-16T04:26:19;7.50;;;6.10;;
70342;SDS011;57767;42.068;24.752;2022-10-16T04:27:20;10.80;;;6.78;;
70342;SDS011;57767;42.068;24.752;2022-10-16T04:28:22;8.45;;;6.22;;
70342;SDS011;57767;42.068;24.752;2022-10-16T04:29:24;8.70;;;6.35;;
70342;SDS011;57767;42.068;24.752;2022-10-16T04:30:26;10.77;;;6.85;;
70342;SDS011;57767;42.068;24.752;2022-10-16T04:31:27;8.00;;;6.70;;
70342;SDS011;57767;42.068;24.752;2022-10-16T04:32:29;12.02;;;10.32;;
70342;SDS011;57767;42.068;24.752;2022-10-16T04:33:31;25.25;;;22.52;;
70342;SDS011;57767;42.068;24.752;2022-10-16T04:34:33;23.17;;;20.08;;
70342;SDS011;57767;42.068;24.752;2022-10-16T04:35:35;22.60;;;17.20;;
70342;SDS011;57767;42.068;24.752;2022-10-16T04:36:37;17.58;;;13.70;;
70342;SDS011;57767;42.068;24.752;2022-10-16T04:37:39;17.17;;;13.70;;
70342;SDS011;57767;42.068;24.752;2022-10-16T04:38:40;15.73;;;13.35;;
70342;SDS011;57767;42.068;24.752;2022-10-16T04:39:42;14.20;;;10.73;;
70342;SDS011;57767;42.068;24.752;2022-10-16T04:40:44;15.90;;;12.38;;
70342;SDS011;57767;42.068;24.752;2022-10-16T04:41:46;11.18;;;9.98;;
70342;SDS011;57767;42.068;24.752;2022-10-16T04:42:48;11.45;;;8.55;;
70342;SDS011;57767;42.068;24.752;2022-10-16T04:43:49;9.25;;;8.30;;
70342;SDS011;57767;42.068;24.752;2022-10-16T04:44:51;10.27;;;7.55;;
70342;SDS011;57767;42.068;24.752;2022-10-16T04:45:53;10.75;;;7.78;;
70342;SDS011;57767;42.068;24.752;2022-10-16T04:46:55;8.63;;;7.30;;
70342;SDS011;57767;42.068;24.752;2022-10-16T04:47:58;9.15;;;7.43;;
70342;SDS011;57767;42.068;24.752;2022-10-16T04:49:00;10.65;;;7.15;;
70342;SDS011;57767;42.068;24.752;2022-10-16T04:50:02;9.40;;;7.70;;
70342;SDS011;57767;42.068;24.752;2022-10-16T04:51:04;9.43;;;7.65;;
70342;SDS011;57767;42.068;24.752;2022-10-16T04:52:05;8.65;;;7.15;;
70342;SDS011;57767;42.068;24.752;2022-10-16T04:53:07;10.95;;;7.93;;
70342;SDS011;57767;42.068;24.752;2022-10-16T04:54:09;11.02;;;8.27;;
70342;SDS011;57767;42.068;24.752;2022-10-16T04:55:11;11.27;;;8.43;;
70342;SDS011;57767;42.068;24.752;2022-10-16T04:56:13;10.95;;;7.30;;
70342;SDS011;57767;42.068;24.752;2022-10-16T04:57:16;16.05;;;8.27;;
70342;SDS011;57767;42.068;24.752;2022-10-16T04:58:18;11.88;;;8.32;;
70342;SDS011;57767;42.068;24.752;2022-10-16T04:59:20;10.48;;;7.90;;
70342;SDS011;57767;42.068;24.752;2022-10-16T05:00:23;10.30;;;7.68;;
70342;SDS011;57767;42.068;24.752;2022-10-16T05:01:25;10.90;;;7.68;;
70342;SDS011;57767;42.068;24.752;2022-10-16T05:02:26;11.60;;;8.02;;
70342;SDS011;57767;42.068;24.752;2022-10-16T05:03:28;10.25;;;7.68;;
70342;SDS011;57767;42.068;24.752;2022-10-16T05:04:31;12.13;;;7.70;;
70342;SDS011;57767;42.068;24.752;2022-10-16T05:05:33;9.75;;;7.55;;
70342;SDS011;57767;42.068;24.752;2022-10-16T05:06:35;12.48;;;7.80;;
70342;SDS011;57767;42.068;24.752;2022-10-16T05:07:36;12.15;;;8.40;;
70342;SDS011;57767;42.068;24.752;2022-10-16T05:08:38;11.52;;;7.40;;
70342;SDS011;57767;42.068;24.752;2022-10-16T05:09:40;12.20;;;7.57;;
70342;SDS011;57767;42.068;24.752;2022-10-16T05:10:42;9.38;;;7.82;;
70342;SDS011;57767;42.068;24.752;2022-10-16T05:11:45;9.35;;;7.43;;
70342;SDS011;57767;42.068;24.752;2022-10-16T05:12:47;8.98;;;7.53;;
70342;SDS011;57767;42.068;24.752;2022-10-16T05:13:48;9.48;;;7.20;;
70342;SDS011;57767;42.068;24.752;2022-10-16T05:14:55;10.80;;;8.00;;
70342;SDS011;57767;42.068;24.752;2022-10-16T05:16:00;8.80;;;7.65;;
70342;SDS011;57767;42.068;24.752;2022-10-16T05:17:01;10.65;;;8.05;;
70342;SDS011;57767;42.068;24.752;2022-10-16T05:18:03;11.70;;;8.13;;
70342;SDS011;57767;42.068;24.752;2022-10-16T05:19:05;13.02;;;8.05;;
70342;SDS011;57767;42.068;24.752;2022-10-16T05:20:26;12.45;;;8.80;;
70342;SDS011;57767;42.068;24.752;2022-10-16T05:21:28;14.30;;;7.60;;
70342;SDS011;57767;42.068;24.752;2022-10-16T05:22:30;10.07;;;8.05;;
70342;SDS011;57767;42.068;24.752;2022-10-16T05:23:32;12.80;;;7.97;;
70342;SDS011;57767;42.068;24.752;2022-10-16T05:24:34;10.23;;;8.45;;
70342;SDS011;57767;42.068;24.752;2022-10-16T05:25:36;10.13;;;8.27;;
70342;SDS011;57767;42.068;24.752;2022-10-16T05:26:38;11.68;;;8.15;;
70342;SDS011;57767;42.068;24.752;2022-10-16T05:27:39;10.93;;;7.78;;
70342;SDS011;57767;42.068;24.752;2022-10-16T05:28:41;14.73;;;8.93;;
70342;SDS011;57767;42.068;24.752;2022-10-16T05:29:43;10.93;;;8.45;;
70342;SDS011;57767;42.068;24.752;2022-10-16T05:30:48;10.88;;;8.90;;
70342;SDS011;57767;42.068;24.752;2022-10-16T05:31:51;15.13;;;8.82;;
70342;SDS011;57767;42.068;24.752;2022-10-16T05:32:53;11.35;;;8.27;;
70342;SDS011;57767;42.068;24.752;2022-10-16T05:33:58;13.73;;;8.77;;
70342;SDS011;57767;42.068;24.752;2022-10-16T05:35:01;11.02;;;8.38;;
70342;SDS011;57767;42.068;24.752;2022-10-16T05:36:03;14.55;;;9.00;;
70342;SDS011;57767;42.068;24.752;2022-10-16T05:37:07;12.23;;;8.15;;
70342;SDS011;57767;42.068;24.752;2022-10-16T05:38:09;12.48;;;8.10;;
70342;SDS011;57767;42.068;24.752;2022-10-16T05:39:11;14.45;;;8.50;;
70342;SDS011;57767;42.068;24.752;2022-10-16T05:40:13;11.45;;;8.38;;
70342;SDS011;57767;42.068;24.752;2022-10-16T05:41:15;10.07;;;7.65;;
70342;SDS011;57767;42.068;24.752;2022-10-16T05:42:22;9.52;;;8.25;;
70342;SDS011;57767;42.068;24.752;2022-10-16T05:43:24;15.50;;;8.55;;
70342;SDS011;57767;42.068;24.752;2022-10-16T05:44:25;16.52;;;9.10;;
70342;SDS011;57767;42.068;24.752;2022-10-16T05:45:27;12.98;;;8.80;;
70342;SDS011;57767;42.068;24.752;2022-10-16T05:46:29;15.25;;;8.65;;
70342;SDS011;57767;42.068;24.752;2022-10-16T05:47:31;12.40;;;7.78;;
70342;SDS011;57767;42.068;24.752;2022-10-16T05:48:32;11.60;;;7.80;;
70342;SDS011;57767;42.068;24.752;2022-10-16T05:49:34;9.88;;;8.07;;
70342;SDS011;57767;42.068;24.752;2022-10-16T05:50:41;9.88;;;7.50;;
70342;SDS011;57767;42.068;24.752;2022-10-16T05:51:43;10.95;;;7.65;;
70342;SDS011;57767;42.068;24.752;2022-10-16T05:52:44;14.20;;;7.45;;
70342;SDS011;57767;42.068;24.752;2022-10-16T05:53:46;11.55;;;7.93;;
70342;SDS011;57767;42.068;24.752;2022-10-16T05:54:48;10.23;;;7.18;;
70342;SDS011;57767;42.068;24.752;2022-10-16T05:55:53;10.85;;;7.43;;
70342;SDS011;57767;42.068;24.752;2022-10-16T05:56:56;12.45;;;8.40;;
70342;SDS011;57767;42.068;24.752;2022-10-16T05:57:57;10.93;;;7.85;;
70342;SDS011;57767;42.068;24.752;2022-10-16T05:58:59;9.10;;;7.53;;
70342;SDS011;57767;42.068;24.752;2022-10-16T06:00:01;9.32;;;7.32;;
70342;SDS011;57767;42.068;24.752;2022-10-16T06:01:07;14.45;;;8.68;;
70342;SDS011;57767;42.068;24.752;2022-10-16T06:02:13;12.60;;;8.00;;
70342;SDS011;57767;42.068;24.752;2022-10-16T06:03:15;9.07;;;7.32;;
70342;SDS011;57767;42.068;24.752;2022-10-16T06:04:16;7.95;;;6.57;;
70342;SDS011;57767;42.068;24.752;2022-10-16T06:05:18;15.80;;;7.05;;
70342;SDS011;57767;42.068;24.752;2022-10-16T06:06:21;8.93;;;6.90;;
70342;SDS011;57767;42.068;24.752;2022-10-16T06:07:24;9.98;;;7.35;;
70342;SDS011;57767;42.068;24.752;2022-10-16T06:08:26;10.43;;;7.63;;
70342;SDS011;57767;42.068;24.752;2022-10-16T06:09:27;12.25;;;7.10;;
70342;SDS011;57767;42.068;24.752;2022-10-16T06:10:29;8.15;;;6.82;;
70342;SDS011;57767;42.068;24.752;2022-10-16T06:11:32;9.88;;;6.68;;
70342;SDS011;57767;42.068;24.752;2022-10-16T06:12:34;10.00;;;6.97;;
70342;SDS011;57767;42.068;24.752;2022-10-16T06:13:36;12.68;;;7.45;;
70342;SDS011;57767;42.068;24.752;2022-10-16T06:14:38;11.25;;;7.55;;
70342;SDS011;57767;42.068;24.752;2022-10-16T06:15:40;10.20;;;7.65;;
70342;SDS011;57767;42.068;24.752;2022-10-16T06:16:43;12.13;;;7.13;;
70342;SDS011;57767;42.068;24.752;2022-10-16T06:17:45;10.77;;;7.18;;
70342;SDS011;57767;42.068;24.752;2022-10-16T06:18:47;11.70;;;7.78;;
70342;SDS011;57767;42.068;24.752;2022-10-16T06:19:48;10.38;;;8.02;;
70342;SDS011;57767;42.068;24.752;2022-10-16T06:20:50;10.43;;;8.25;;
70342;SDS011;57767;42.068;24.752;2022-10-16T06:21:52;11.10;;;8.13;;
70342;SDS011;57767;42.068;24.752;2022-10-16T06:22:53;13.13;;;8.63;;
70342;SDS011;57767;42.068;24.752;2022-10-16T06:23:55;13.07;;;8.77;;
70342;SDS011;57767;42.068;24.752;2022-10-16T06:24:58;11.90;;;7.50;;
70342;SDS011;57767;42.068;24.752;2022-10-16T06:26:10;10.15;;;7.72;;
70342;SDS011;57767;42.068;24.752;2022-10-16T06:27:13;11.15;;;7.85;;
70342;SDS011;57767;42.068;24.752;2022-10-16T06:28:15;13.10;;;7.90;;
70342;SDS011;57767;42.068;24.752;2022-10-16T06:29:17;11.98;;;7.65;;
70342;SDS011;57767;42.068;24.752;2022-10-16T06:30:19;12.10;;;7.88;;
70342;SDS011;57767;42.068;24.752;2022-10-16T06:31:20;11.25;;;7.95;;
70342;SDS011;57767;42.068;24.752;2022-10-16T06:32:22;13.55;;;8.45;;
70342;SDS011;57767;42.068;24.752;2022-10-16T06:33:24;10.10;;;7.80;;
70342;SDS011;57767;42.068;24.752;2022-10-16T06:34:26;10.38;;;7.40;;